Time,TemperatureF,DewpointF,PressureIn,WindDirection,WindDirectionDegrees,WindSpeedMPH,WindSpeedGustMPH,Humidity,HourlyPrecipIn,Conditions,Clouds,dailyrainin,SoftwareType,DateUTC
2013-07-11 00:01:00,79.0,39.0,29.94,SSE,161,2.0,6.0,24,0.00,,,0.00,,2013-07-11 06:01:00,
2013-07-11 00:11:00,79.0,40.0,29.94,SSE,161,0.0,1.0,25,0.00,,,0.00,,2013-07-11 06:11:00,
2013-07-11 00:22:00,79.0,40.0,29.93,ESE,102,0.0,2.0,25,0.00,,,0.00,,2013-07-11 06:22:00,
2013-07-11 00:32:00,79.0,41.0,29.93,ESE,102,0.0,0.0,26,0.00,,,0.00,,2013-07-11 06:32:00,
2013-07-11 00:43:00,78.0,41.0,29.93,ESE,102,0.0,0.0,27,0.00,,,0.00,,2013-07-11 06:43:00,
2013-07-11 00:52:00,78.0,42.0,29.93,ESE,102,0.0,0.0,28,0.00,,,0.00,,2013-07-11 06:52:00,
2013-07-11 01:01:00,77.0,44.0,29.94,ESE,102,0.0,0.0,31,0.00,,,0.00,,2013-07-11 07:01:00,
2013-07-11 01:12:00,72.0,45.0,29.94,ESE,107,0.0,2.0,38,0.00,,,0.00,,2013-07-11 07:12:00,
2013-07-11 01:22:00,70.0,45.0,29.94,ESE,107,0.0,0.0,40,0.00,,,0.00,,2013-07-11 07:22:00,
2013-07-11 01:32:00,69.0,45.0,29.94,ESE,107,0.0,0.0,42,0.00,,,0.00,,2013-07-11 07:32:00,
2013-07-11 01:45:00,68.0,46.0,29.94,ESE,107,0.0,0.0,46,0.00,,,0.00,,2013-07-11 07:45:00,
2013-07-11 01:53:00,69.0,42.0,29.94,East,98,0.0,6.0,38,0.00,,,0.00,,2013-07-11 07:53:00,
2013-07-11 02:02:00,69.0,44.0,29.93,WSW,246,0.0,5.0,41,0.00,,,0.00,,2013-07-11 08:02:00,
2013-07-11 02:11:00,70.0,43.0,29.93,WSW,246,0.0,0.0,38,0.00,,,0.00,,2013-07-11 08:11:00,
2013-07-11 02:22:00,71.0,43.0,29.93,WSW,249,0.0,0.0,37,0.00,,,0.00,,2013-07-11 08:22:00,
2013-07-11 02:34:00,72.0,44.0,29.93,WSW,250,0.0,0.0,37,0.00,,,0.00,,2013-07-11 08:34:00,
2013-07-11 02:43:00,73.0,45.0,29.92,WSW,250,0.0,0.0,37,0.00,,,0.00,,2013-07-11 08:43:00,
2013-07-11 02:53:00,73.0,45.0,29.92,WSW,250,0.0,0.0,37,0.00,,,0.00,,2013-07-11 08:53:00,
2013-07-11 03:02:00,73.0,46.0,29.92,WSW,250,0.0,0.0,38,0.00,,,0.00,,2013-07-11 09:02:00,
2013-07-11 03:12:00,73.0,46.0,29.92,ESE,112,1.0,7.0,38,0.00,,,0.00,,2013-07-11 09:12:00,
2013-07-11 03:21:00,73.0,46.0,29.92,South,176,4.0,7.0,38,0.00,,,0.00,,2013-07-11 09:21:00,
2013-07-11 03:33:00,72.0,46.0,29.92,SSE,148,1.0,4.0,40,0.00,,,0.00,,2013-07-11 09:33:00,
2013-07-11 03:43:00,72.0,46.0,29.92,SE,134,1.0,6.0,39,0.00,,,0.00,,2013-07-11 09:43:00,
2013-07-11 03:53:00,73.0,46.0,29.92,SSE,161,5.0,10.0,38,0.00,,,0.00,,2013-07-11 09:53:00,
2013-07-11 04:01:00,72.0,46.0,29.92,SSE,148,0.0,6.0,39,0.00,,,0.00,,2013-07-11 10:01:00,
2013-07-11 04:12:00,71.0,45.0,29.91,SE,146,0.0,4.0,39,0.00,,,0.00,,2013-07-11 10:12:00,
2013-07-11 04:21:00,72.0,46.0,29.91,SE,146,0.0,0.0,39,0.00,,,0.00,,2013-07-11 10:21:00,
2013-07-11 04:33:00,73.0,46.0,29.91,SE,141,0.0,4.0,38,0.00,,,0.00,,2013-07-11 10:33:00,
2013-07-11 04:42:00,73.0,47.0,29.91,SE,141,0.0,0.0,39,0.00,,,0.00,,2013-07-11 10:42:00,
2013-07-11 04:52:00,73.0,47.0,29.91,SE,140,0.0,0.0,39,0.00,,,0.00,,2013-07-11 10:52:00,
2013-07-11 05:02:00,73.0,47.0,29.90,SE,140,0.0,2.0,39,0.00,,,0.00,,2013-07-11 11:02:00,
2013-07-11 05:12:00,73.0,47.0,29.90,SSE,151,0.0,5.0,39,0.00,,,0.00,,2013-07-11 11:12:00,
2013-07-11 05:22:00,73.0,47.0,29.90,SSE,155,4.0,5.0,40,0.00,,,0.00,,2013-07-11 11:22:00,
2013-07-11 05:32:00,73.0,47.0,29.90,South,179,5.0,6.0,40,0.00,,,0.00,,2013-07-11 11:32:00,
2013-07-11 05:43:00,73.0,47.0,29.90,South,179,0.0,5.0,40,0.00,,,0.00,,2013-07-11 11:43:00,
2013-07-11 05:53:00,72.0,47.0,29.90,SSE,165,1.0,6.0,41,0.00,,,0.00,,2013-07-11 11:53:00,
2013-07-11 06:01:00,73.0,47.0,29.90,SSE,161,4.0,9.0,40,0.00,,,0.00,,2013-07-11 12:01:00,
2013-07-11 06:12:00,74.0,48.0,29.90,South,181,6.0,9.0,40,0.00,,,0.00,,2013-07-11 12:12:00,
2013-07-11 06:22:00,73.0,47.0,29.91,South,179,7.0,11.0,40,0.00,,,0.00,,2013-07-11 12:22:00,
2013-07-11 06:33:00,74.0,48.0,29.91,South,173,2.0,7.0,40,0.00,,,0.00,,2013-07-11 12:33:00,
2013-07-11 06:43:00,74.0,49.0,29.91,South,186,1.0,8.0,41,0.00,,,0.00,,2013-07-11 12:43:00,
2013-07-11 06:54:00,74.0,47.0,29.91,South,188,5.0,8.0,39,0.00,,,0.00,,2013-07-11 12:54:00,
2013-07-11 07:02:00,75.0,49.0,29.91,SSE,159,0.0,5.0,40,0.00,,,0.00,,2013-07-11 13:02:00,
2013-07-11 07:12:00,75.0,51.0,29.91,SSE,161,0.0,1.0,43,0.00,,,0.00,,2013-07-11 13:12:00,
2013-07-11 07:34:00,74.0,50.0,29.90,South,169,5.0,7.0,43,0.00,,,0.00,,2013-07-11 13:34:00,
2013-07-11 07:45:00,75.0,52.0,29.90,South,184,3.0,7.0,44,0.00,,,0.00,,2013-07-11 13:45:00,
2013-07-11 08:04:00,76.0,51.0,29.90,South,173,6.0,10.0,41,0.00,,,0.00,,2013-07-11 14:04:00,
2013-07-11 08:23:00,77.0,49.0,29.90,SSE,155,7.0,9.0,37,0.00,,,0.00,,2013-07-11 14:23:00,
2013-07-11 08:35:00,78.0,51.0,29.90,SSE,157,4.0,8.0,39,0.00,,,0.00,,2013-07-11 14:35:00,
2013-07-11 09:04:00,79.0,50.0,29.90,SSE,166,4.0,7.0,36,0.00,,,0.00,,2013-07-11 15:04:00,
2013-07-11 09:12:00,79.0,50.0,29.89,SSE,158,4.0,7.0,37,0.00,,,0.00,,2013-07-11 15:12:00,
2013-07-11 09:23:00,79.0,52.0,29.89,SSE,153,2.0,7.0,39,0.00,,,0.00,,2013-07-11 15:23:00,
2013-07-11 09:45:00,80.0,52.0,29.88,SSE,148,6.0,8.0,38,0.00,,,0.00,,2013-07-11 15:45:00,
2013-07-11 09:55:00,81.0,52.0,29.88,SSE,150,0.0,9.0,36,0.00,,,0.00,,2013-07-11 15:55:00,
2013-07-11 10:04:00,82.0,52.0,29.88,SSE,153,2.0,7.0,35,0.00,,,0.00,,2013-07-11 16:04:00,
2013-07-11 10:13:00,82.0,52.0,29.88,SSE,149,0.0,2.0,35,0.00,,,0.00,,2013-07-11 16:13:00,
2013-07-11 10:34:00,84.0,53.0,29.88,SE,127,2.0,6.0,34,0.00,,,0.00,,2013-07-11 16:34:00,
2013-07-11 10:44:00,84.0,50.0,29.87,SE,144,1.0,7.0,31,0.00,,,0.00,,2013-07-11 16:44:00,
2013-07-11 10:54:00,85.0,51.0,29.87,SE,139,3.0,9.0,31,0.00,,,0.00,,2013-07-11 16:54:00,
2013-07-11 11:02:00,84.0,50.0,29.86,SSE,148,2.0,7.0,31,0.00,,,0.00,,2013-07-11 17:02:00,
2013-07-11 11:13:00,86.0,51.0,29.86,SSE,150,3.0,7.0,30,0.00,,,0.00,,2013-07-11 17:13:00,
2013-07-11 11:36:00,86.0,52.0,29.86,SE,132,0.0,5.0,31,0.00,,,0.00,,2013-07-11 17:36:00,
2013-07-11 11:45:00,86.0,51.0,29.85,SE,137,0.0,1.0,30,0.00,,,0.00,,2013-07-11 17:45:00,
2013-07-11 11:52:00,86.0,50.0,29.85,SE,142,5.0,6.0,29,0.00,,,0.00,,2013-07-11 17:52:00,
2013-07-11 12:03:00,87.0,49.0,29.85,South,169,0.0,7.0,27,0.00,,,0.00,,2013-07-11 18:03:00,
2013-07-11 12:14:00,88.0,51.0,29.85,South,169,2.0,7.0,28,0.00,,,0.00,,2013-07-11 18:14:00,
2013-07-11 12:22:00,88.0,52.0,29.85,SSE,150,0.0,6.0,29,0.00,,,0.00,,2013-07-11 18:22:00,
2013-07-11 12:35:00,88.0,52.0,29.84,SE,138,0.0,6.0,29,0.00,,,0.00,,2013-07-11 18:35:00,
2013-07-11 12:45:00,89.0,54.0,29.83,SE,138,0.0,0.0,30,0.00,,,0.00,,2013-07-11 18:45:00,
2013-07-11 12:53:00,89.0,54.0,29.83,SE,138,0.0,4.0,30,0.00,,,0.00,,2013-07-11 18:53:00,
2013-07-11 13:12:00,90.0,46.0,29.82,SSE,157,3.0,6.0,22,0.00,,,0.00,,2013-07-11 19:12:00,
2013-07-11 13:23:00,91.0,48.0,29.82,SE,140,3.0,6.0,23,0.00,,,0.00,,2013-07-11 19:23:00,
2013-07-11 13:36:00,90.0,48.0,29.82,ESE,111,5.0,7.0,24,0.00,,,0.00,,2013-07-11 19:36:00,
2013-07-11 13:44:00,91.0,49.0,29.82,SE,133,8.0,11.0,24,0.00,,,0.00,,2013-07-11 19:44:00,
2013-07-11 14:03:00,91.0,44.0,29.80,East,98,0.0,5.0,20,0.00,,,0.00,,2013-07-11 20:03:00,
2013-07-11 14:12:00,94.0,43.0,29.80,SSE,148,4.0,6.0,17,0.00,,,0.00,,2013-07-11 20:12:00,
2013-07-11 14:25:00,93.0,45.0,29.80,ESE,119,6.0,9.0,19,0.00,,,0.00,,2013-07-11 20:25:00,
2013-07-11 14:46:00,90.0,49.0,29.80,ESE,113,4.0,8.0,25,0.00,,,0.00,,2013-07-11 20:46:00,
2013-07-11 14:53:00,91.0,53.0,29.80,ESE,119,0.0,5.0,28,0.00,,,0.00,,2013-07-11 20:53:00,
2013-07-11 15:04:00,90.0,54.0,29.79,ESE,119,0.0,1.0,30,0.00,,,0.00,,2013-07-11 21:04:00,
2013-07-11 15:13:00,90.0,49.0,29.79,ESE,105,6.0,8.0,25,0.00,,,0.00,,2013-07-11 21:13:00,
2013-07-11 15:33:00,89.0,51.0,29.79,ESE,109,4.0,6.0,27,0.00,,,0.00,,2013-07-11 21:33:00,
2013-07-11 15:44:00,90.0,50.0,29.79,ESE,112,4.0,6.0,26,0.00,,,0.00,,2013-07-11 21:44:00,
2013-07-11 16:23:00,87.0,45.0,29.78,North,349,11.0,19.0,23,0.00,,,0.00,,2013-07-11 22:23:00,
2013-07-11 16:32:00,87.0,44.0,29.78,NNW,327,16.0,25.0,22,0.00,,,0.00,,2013-07-11 22:32:00,
2013-07-11 16:45:00,90.0,39.0,29.78,North,351,4.0,31.0,17,0.00,,,0.00,,2013-07-11 22:45:00,
2013-07-11 16:54:00,87.0,41.0,29.78,North,355,14.0,20.0,20,0.00,,,0.00,,2013-07-11 22:54:00,
2013-07-11 17:04:00,88.0,41.0,29.78,NW,309,17.0,24.0,19,0.00,,,0.00,,2013-07-11 23:04:00,
2013-07-11 17:13:00,87.0,41.0,29.78,NW,317,11.0,21.0,20,0.00,,,0.00,,2013-07-11 23:13:00,
2013-07-11 17:23:00,88.0,42.0,29.78,NW,320,13.0,22.0,20,0.00,,,0.00,,2013-07-11 23:23:00,
2013-07-11 17:34:00,87.0,41.0,29.78,WNW,303,27.0,34.0,20,0.00,,,0.00,,2013-07-11 23:34:00,
2013-07-11 17:46:00,86.0,41.0,29.78,NW,318,28.0,37.0,21,0.00,,,0.00,,2013-07-11 23:46:00,
2013-07-11 17:54:00,86.0,44.0,29.78,NW,314,24.0,36.0,23,0.00,,,0.00,,2013-07-11 23:54:00,
2013-07-11 18:03:00,85.0,42.0,29.78,NW,309,22.0,31.0,22,0.00,,,0.00,,2013-07-12 00:03:00,
2013-07-11 18:13:00,86.0,43.0,29.78,NW,317,19.0,28.0,22,0.00,,,0.00,,2013-07-12 00:13:00,
2013-07-11 18:23:00,87.0,44.0,29.78,NW,317,19.0,28.0,22,0.00,,,0.00,,2013-07-12 00:23:00,
2013-07-11 18:34:00,86.0,44.0,29.78,NW,304,17.0,26.0,23,0.00,,,0.00,,2013-07-12 00:34:00,
2013-07-11 18:43:00,86.0,43.0,29.77,NW,309,21.0,26.0,22,0.00,,,0.00,,2013-07-12 00:43:00,
2013-07-11 19:02:00,84.0,45.0,29.78,NW,319,16.0,24.0,26,0.00,,,0.00,,2013-07-12 01:02:00,
2013-07-11 19:12:00,84.0,47.0,29.78,NW,322,17.0,25.0,28,0.00,,,0.00,,2013-07-12 01:12:00,
2013-07-11 19:25:00,83.0,47.0,29.79,NW,311,16.0,22.0,28,0.00,,,0.00,,2013-07-12 01:25:00,
2013-07-11 19:34:00,83.0,47.0,29.78,NW,304,13.0,24.0,28,0.00,,,0.00,,2013-07-12 01:34:00,
2013-07-11 19:44:00,83.0,46.0,29.79,NW,309,18.0,25.0,27,0.00,,,0.00,,2013-07-12 01:44:00,
2013-07-11 19:55:00,83.0,45.0,29.79,NW,318,18.0,24.0,26,0.00,,,0.00,,2013-07-12 01:55:00,
2013-07-11 20:04:00,82.0,44.0,29.79,NW,320,18.0,24.0,26,0.00,,,0.00,,2013-07-12 02:04:00,
2013-07-11 20:15:00,82.0,45.0,29.79,NW,307,15.0,24.0,27,0.00,,,0.00,,2013-07-12 02:15:00,
2013-07-11 20:24:00,82.0,44.0,29.79,NW,323,17.0,25.0,26,0.00,,,0.00,,2013-07-12 02:24:00,
2013-07-11 20:35:00,82.0,44.0,29.80,NW,309,18.0,23.0,26,0.00,,,0.00,,2013-07-12 02:35:00,
2013-07-11 20:43:00,82.0,45.0,29.80,NW,314,21.0,25.0,27,0.00,,,0.00,,2013-07-12 02:43:00,
2013-07-11 20:52:00,81.0,44.0,29.80,NW,315,18.0,22.0,27,0.00,,,0.00,,2013-07-12 02:52:00,
2013-07-11 21:02:00,81.0,45.0,29.81,WNW,284,17.0,24.0,28,0.00,,,0.00,,2013-07-12 03:02:00,
2013-07-11 21:13:00,80.0,45.0,29.82,NW,309,18.0,27.0,29,0.00,,,0.00,,2013-07-12 03:13:00,
2013-07-11 21:23:00,80.0,45.0,29.82,WNW,289,19.0,27.0,29,0.00,,,0.00,,2013-07-12 03:23:00,
2013-07-11 21:35:00,79.0,44.0,29.82,NW,313,21.0,28.0,29,0.00,,,0.00,,2013-07-12 03:35:00,
2013-07-11 21:43:00,79.0,45.0,29.83,WNW,302,19.0,28.0,30,0.00,,,0.00,,2013-07-12 03:43:00,
2013-07-11 21:53:00,79.0,45.0,29.83,WNW,296,20.0,27.0,30,0.00,,,0.00,,2013-07-12 03:53:00,
2013-07-11 22:01:00,79.0,45.0,29.84,WNW,286,22.0,27.0,30,0.00,,,0.00,,2013-07-12 04:01:00,
2013-07-11 22:11:00,78.0,45.0,29.85,WNW,291,16.0,25.0,31,0.00,,,0.00,,2013-07-12 04:11:00,
2013-07-11 22:21:00,78.0,45.0,29.86,WNW,290,18.0,24.0,31,0.00,,,0.00,,2013-07-12 04:21:00,
2013-07-11 22:32:00,78.0,45.0,29.86,WNW,302,19.0,29.0,31,0.00,,,0.00,,2013-07-12 04:32:00,
2013-07-11 22:43:00,78.0,45.0,29.88,WNW,293,21.0,27.0,31,0.00,,,0.00,,2013-07-12 04:43:00,
2013-07-11 22:53:00,79.0,45.0,29.88,WNW,302,21.0,30.0,30,0.00,,,0.00,,2013-07-12 04:53:00,
2013-07-11 23:02:00,79.0,46.0,29.88,NW,311,21.0,29.0,31,0.00,,,0.00,,2013-07-12 05:02:00,
2013-07-11 23:11:00,78.0,47.0,29.90,WNW,290,19.0,29.0,33,0.00,,,0.00,,2013-07-12 05:11:00,
2013-07-11 23:22:00,77.0,47.0,29.91,WNW,302,12.0,20.0,35,0.00,,,0.00,,2013-07-12 05:22:00,
2013-07-11 23:32:00,76.0,48.0,29.92,NW,304,14.0,18.0,37,0.00,,,0.00,,2013-07-12 05:32:00,
2013-07-11 23:53:00,75.0,51.0,29.92,North,355,5.0,7.0,43,0.00,,,0.00,,2013-07-12 05:53:00,